Time;durP1;ratioP1;P1;durP2;ratioP2;P2;SDS_P1;SDS_P2;PMS_P1;PMS_P2;Temp;Humidity;BMP_temperature;BMP_pressure;BME280_temperature;BME280_humidity;BME280_pressure;Samples;Min_cycle;Max_cycle;Signal;HPM_P1;HPM_P2
2023/04/18 04:47:26;;;;;;;26.40;19.40;;;;;;;5.19;95.35;95870.66;6146832;23;20259;-85
2023/04/18 04:49:57;;;;;;;26.07;19.07;;;;;;;5.04;95.96;95866.59;6187929;23;20204;-82
2023/04/18 05:25:30;;;;;;;27.63;19.17;;;;;;;5.03;94.72;95888.09;6212182;23;20173;-85
2023/04/18 06:26:46;;;;;;;26.67;18.10;;;;;;;5.63;91.49;95913.09;6192361;23;20227;-80
2023/04/18 07:19:15;;;;;;;23.13;17.70;;;;;;;6.17;89.71;95926.38;6154616;23;20229;-83
2023/04/18 10:54:06;;;;;;;23.67;17.33;;;;;;;9.95;75.68;95974.66;6155119;23;20348;31
2023/04/18 11:58:09;;;;;;;16.20;12.70;;;;;;;11.24;69.27;95959.63;6238343;23;20201;-81
2023/04/18 12:09:19;;;;;;;16.53;13.37;;;;;;;11.01;72.89;95966.09;6194684;23;20158;-85
2023/04/18 12:12:10;;;;;;;19.20;14.23;;;;;;;10.63;73.66;95957.41;6162854;23;20154;-83
2023/04/18 12:15:09;;;;;;;16.23;13.47;;;;;;;10.50;75.45;95957.69;6204089;23;20174;-83
2023/04/18 12:17:38;;;;;;;18.00;13.70;;;;;;;10.60;75.25;95959.44;6185153;23;20190;-84
2023/04/18 12:20:23;;;;;;;17.13;13.47;;;;;;;10.74;74.83;95956.44;6187041;23;20238;-84
2023/04/18 12:23:02;;;;;;;17.23;13.87;;;;;;;10.54;75.56;95953.03;6212487;23;20170;-84
2023/04/18 12:25:37;;;;;;;16.33;13.83;;;;;;;10.68;75.25;95964.78;6210278;23;20169;-87
2023/04/18 12:31:21;;;;;;;18.20;13.23;;;;;;;10.72;75.23;95960.97;6199164;23;20849;-83
2023/04/18 12:33:54;;;;;;;16.47;12.57;;;;;;;11.06;74.65;95958.72;6194466;23;20151;-83
2023/04/18 12:36:27;;;;;;;13.47;12.00;;;;;;;10.84;74.96;95965.03;6166092;23;20216;-84
2023/04/18 12:39:03;;;;;;;14.80;12.20;;;;;;;10.90;75.21;95950.69;6189792;23;20588;-83
2023/04/18 12:41:43;;;;;;;14.43;12.60;;;;;;;11.34;72.80;95957.00;6188878;23;20538;-83
2023/04/18 12:44:08;;;;;;;16.70;12.70;;;;;;;11.46;72.92;95948.03;6188227;23;20147;-79
2023/04/18 12:46:35;;;;;;;15.77;12.77;;;;;;;11.95;71.83;95948.66;6187152;23;20185;-82
2023/04/18 12:49:04;;;;;;;16.37;12.90;;;;;;;12.31;70.40;95948.69;6164589;23;20601;-85
2023/04/18 12:51:32;;;;;;;17.77;13.37;;;;;;;12.47;70.52;95951.47;6189322;23;20166;-83
2023/04/18 12:53:58;;;;;;;18.70;13.60;;;;;;;13.22;66.04;95951.88;6189502;23;20253;-83
2023/04/18 12:56:23;;;;;;;16.27;12.87;;;;;;;12.86;65.84;95956.34;6163012;23;20158;-84
2023/04/18 12:58:48;;;;;;;17.67;13.40;;;;;;;13.30;66.22;95942.31;6185759;23;20643;-84
2023/04/18 13:01:16;;;;;;;14.97;12.57;;;;;;;12.57;67.85;95952.19;6159170;23;20186;-84
2023/04/18 13:03:44;;;;;;;15.70;12.97;;;;;;;13.19;65.38;95945.19;6160763;23;20590;-85
2023/04/18 13:06:23;;;;;;;16.03;13.20;;;;;;;13.33;65.10;95946.41;6182169;23;20587;-84
2023/04/18 13:09:03;;;;;;;15.60;12.50;;;;;;;13.19;64.76;95946.94;6160758;23;20225;-84
2023/04/18 13:14:27;;;;;;;14.57;11.60;;;;;;;12.91;64.70;95946.28;6183676;23;20150;-84
2023/04/18 13:16:52;;;;;;;14.40;11.83;;;;;;;13.16;64.52;95948.06;6184912;23;20178;-84
2023/04/18 13:19:21;;;;;;;11.90;10.70;;;;;;;12.87;63.68;95957.97;6183304;23;20646;-84
2023/04/18 13:21:52;;;;;;;12.30;9.93;;;;;;;13.36;63.58;95943.50;6158491;23;20186;-84
2023/04/18 13:24:23;;;;;;;14.07;10.53;;;;;;;13.22;63.88;95942.25;6159310;23;20163;-84
2023/04/18 13:26:51;;;;;;;11.67;10.23;;;;;;;13.27;63.30;95942.63;6184294;23;20221;-82
2023/04/18 13:29:16;;;;;;;13.33;10.83;;;;;;;13.81;61.83;95942.38;6183612;23;20221;-82
2023/04/18 13:31:44;;;;;;;12.93;10.57;;;;;;;13.17;62.45;95941.91;6184192;23;20647;-83
2023/04/18 13:34:09;;;;;;;13.23;10.13;;;;;;;13.32;63.19;95942.16;6159725;23;20158;-83
2023/04/18 13:36:35;;;;;;;11.27;9.47;;;;;;;12.50;63.72;95935.53;6182963;23;20225;-83
2023/04/18 13:39:01;;;;;;;12.43;10.13;;;;;;;12.68;63.47;95941.53;6183615;23;20155;-83
2023/04/18 13:41:26;;;;;;;13.00;10.60;;;;;;;12.73;64.43;95943.69;6184610;23;20174;-83
2023/04/18 13:43:52;;;;;;;11.60;9.10;;;;;;;12.80;63.43;95931.69;6184440;23;20159;-84
2023/04/18 13:46:22;;;;;;;10.40;9.13;;;;;;;13.25;63.40;95941.13;6159162;23;20169;-84
2023/04/18 13:48:52;;;;;;;10.37;8.97;;;;;;;13.15;63.53;95937.78;6160116;23;20182;-82
2023/04/18 13:51:20;;;;;;;10.37;9.07;;;;;;;12.81;64.34;95940.31;6160203;23;20491;-83
2023/04/18 13:53:46;;;;;;;11.03;8.87;;;;;;;13.35;64.14;95935.84;6159101;23;20161;-83
2023/04/18 13:56:11;;;;;;;9.50;8.07;;;;;;;13.16;63.34;95936.81;6182857;23;20166;-83
2023/04/18 13:58:37;;;;;;;9.80;8.10;;;;;;;13.48;61.77;95933.59;6158458;23;20241;-83
2023/04/18 14:01:02;;;;;;;8.63;7.73;;;;;;;13.55;61.62;95932.00;6182524;23;20260;-82
2023/04/18 14:03:27;;;;;;;11.87;10.37;;;;;;;13.27;62.26;95937.41;6183907;23;20588;-84
2023/04/18 14:05:55;;;;;;;7.67;6.87;;;;;;;13.08;60.60;95940.22;6183374;23;20158;-82
2023/04/18 14:08:23;;;;;;;9.03;7.07;;;;;;;13.04;61.21;95931.84;6157544;23;20190;-83
2023/04/18 14:10:51;;;;;;;8.13;6.63;;;;;;;12.70;60.55;95939.59;6182912;23;20162;-82
2023/04/18 14:13:18;;;;;;;6.80;5.47;;;;;;;12.88;60.20;95938.75;6158476;23;20209;-83
2023/04/18 14:15:49;;;;;;;5.87;5.27;;;;;;;12.94;59.76;95940.75;6183196;23;20663;-88
2023/04/18 14:18:20;;;;;;;7.07;5.80;;;;;;;13.05;59.94;95936.09;6158108;23;20265;-82
2023/04/18 14:20:48;;;;;;;6.23;5.60;;;;;;;12.86;59.83;95945.91;6159650;23;20186;-84
2023/04/18 14:23:16;;;;;;;5.80;5.20;;;;;;;13.23;59.82;95943.91;6183281;23;20162;-82
2023/04/18 14:25:43;;;;;;;7.37;5.43;;;;;;;13.19;59.49;95941.72;6182550;23;20202;-85
2023/04/18 14:28:10;;;;;;;6.27;4.87;;;;;;;12.93;60.00;95941.72;6181667;23;20178;-87
2023/04/18 14:30:41;;;;;;;6.17;5.57;;;;;;;12.97;60.22;95945.66;6158440;23;20237;-84
2023/04/18 14:33:08;;;;;;;9.00;6.33;;;;;;;12.88;60.65;95949.97;6159393;23;20155;-85
2023/04/18 14:35:33;;;;;;;6.70;5.63;;;;;;;12.80;60.49;95938.69;6183484;23;20161;-84
2023/04/18 14:37:59;;;;;;;7.67;6.07;;;;;;;13.16;60.26;95937.63;6156529;23;20174;-84
2023/04/18 14:40:24;;;;;;;6.43;5.70;;;;;;;13.29;59.95;95943.28;6180745;23;20245;-84
2023/04/18 14:42:49;;;;;;;7.67;5.70;;;;;;;12.93;59.80;95941.72;6156997;23;20237;-83
2023/04/18 14:45:15;;;;;;;6.67;5.53;;;;;;;13.08;58.93;95940.22;6158622;23;20597;-85
2023/04/18 14:47:42;;;;;;;7.17;5.90;;;;;;;12.98;59.61;95939.47;6182724;23;20178;-81
2023/04/18 14:50:34;;;;;;;6.27;5.37;;;;;;;12.90;59.29;95944.66;6159293;23;20150;-85
2023/04/18 14:53:06;;;;;;;5.57;4.80;;;;;;;12.84;60.05;95948.66;6184274;23;20166;-85
2023/04/18 14:55:35;;;;;;;6.73;5.17;;;;;;;12.47;60.64;95948.84;6159620;23;20500;-84
2023/04/18 14:58:03;;;;;;;7.00;5.70;;;;;;;12.35;60.43;95945.63;6159404;23;20244;-85
2023/04/18 15:00:31;;;;;;;8.93;5.17;;;;;;;12.51;60.55;95947.56;6158552;23;20183;-84
2023/04/18 15:03:04;;;;;;;6.17;5.57;;;;;;;12.62;60.64;95946.53;6183609;23;20170;-85
2023/04/18 15:05:45;;;;;;;6.17;5.53;;;;;;;12.69;59.52;95942.34;6159320;23;20158;-87
2023/04/18 15:08:10;;;;;;;6.13;5.53;;;;;;;12.77;59.38;95947.63;6160963;23;20194;-84
2023/04/18 15:10:36;;;;;;;7.57;6.17;;;;;;;12.71;58.81;95943.81;6184439;23;20584;-84
2023/04/18 15:13:02;;;;;;;5.77;5.27;;;;;;;13.12;59.98;95949.34;6159596;23;20155;-84
2023/04/18 15:15:29;;;;;;;7.97;6.77;;;;;;;12.63;59.81;95945.56;6184428;23;20245;-84
2023/04/18 15:17:55;;;;;;;6.57;5.60;;;;;;;12.68;59.51;95951.16;6158314;23;20519;-83
2023/04/18 15:20:21;;;;;;;6.47;5.30;;;;;;;12.63;59.40;95948.16;6159575;23;20567;-80
2023/04/18 15:37:22;;;;;;;;;;;;;;;;;;;;;
2023/04/18 15:49:42;;;;;;;9.73;7.47;;;;;;;12.61;63.30;95943.09;6045840;23;20212;-84
2023/04/18 15:52:10;;;;;;;11.17;8.93;;;;;;;12.35;64.16;95960.44;6018057;23;20611;-84
2023/04/18 15:54:40;;;;;;;9.30;8.13;;;;;;;12.61;64.03;95948.31;6065058;23;20569;-84
2023/04/18 15:57:11;;;;;;;8.47;7.57;;;;;;;11.94;66.08;95957.44;6064723;23;20268;-84
2023/04/18 15:59:36;;;;;;;8.40;7.30;;;;;;;11.89;66.52;95949.25;6017548;23;20245;-85
2023/04/18 16:02:07;;;;;;;9.73;8.43;;;;;;;11.84;66.85;95961.88;6065820;23;20192;-84
2023/04/18 16:04:34;;;;;;;9.83;7.43;;;;;;;12.04;66.85;95965.19;6065351;23;20165;-84
2023/04/18 16:07:00;;;;;;;10.87;7.83;;;;;;;11.74;68.00;95958.47;6065899;23;20311;-84
2023/04/18 16:09:27;;;;;;;7.87;7.07;;;;;;;11.82;67.61;95963.78;6123723;23;20541;-84
2023/04/18 16:11:56;;;;;;;8.13;7.33;;;;;;;11.99;67.60;95957.00;6074781;23;20156;-85
2023/04/18 16:14:22;;;;;;;9.67;7.33;;;;;;;11.87;67.83;95962.41;6098970;23;20248;-84
2023/04/18 16:16:47;;;;;;;11.30;8.30;;;;;;;12.10;67.38;95965.44;6099021;23;20211;-84
2023/04/18 16:19:13;;;;;;;8.53;7.40;;;;;;;11.89;67.59;95957.03;6074558;23;20363;-84
2023/04/18 16:21:38;;;;;;;12.83;10.40;;;;;;;11.97;67.82;95962.34;6098444;23;20374;-84
2023/04/18 16:24:04;;;;;;;11.10;9.90;;;;;;;12.10;67.55;95965.44;6129840;23;20501;-83
2023/04/18 16:26:30;;;;;;;9.87;8.23;;;;;;;12.02;67.58;95970.53;6182181;23;20186;-84
2023/04/18 16:28:55;;;;;;;9.60;7.97;;;;;;;11.95;68.02;95977.28;6184045;23;20213;-84
2023/04/18 16:31:21;;;;;;;15.53;10.23;;;;;;;11.70;68.57;95970.13;6184455;23;20488;-84
2023/04/18 16:33:46;;;;;;;10.40;9.33;;;;;;;11.78;68.20;95970.22;6184945;23;20209;-83
2023/04/18 16:36:12;;;;;;;8.37;6.53;;;;;;;11.73;68.77;95972.44;6183320;23;20155;-83
2023/04/18 16:38:37;;;;;;;8.37;7.33;;;;;;;11.71;68.60;95963.97;6184339;23;20181;-84
2023/04/18 16:41:02;;;;;;;10.17;7.53;;;;;;;11.62;68.48;95976.03;6158641;23;20186;-83
2023/04/18 16:43:29;;;;;;;7.10;6.40;;;;;;;11.70;69.03;95970.94;6158899;23;20198;-84
2023/04/18 16:45:56;;;;;;;8.00;7.00;;;;;;;11.67;68.78;95968.66;6183219;23;20151;-83
2023/04/18 16:48:22;;;;;;;7.13;5.97;;;;;;;11.91;67.79;95970.72;6183571;23;20170;-84
2023/04/18 16:50:48;;;;;;;6.97;6.27;;;;;;;11.64;67.85;95963.72;6158106;23;20495;-84
2023/04/18 16:53:13;;;;;;;7.33;6.60;;;;;;;11.72;68.13;95966.41;6184485;23;20147;-83
2023/04/18 16:55:39;;;;;;;7.13;6.43;;;;;;;11.94;67.55;95973.06;6183783;23;20166;-84
2023/04/18 16:58:04;;;;;;;7.53;6.47;;;;;;;11.58;67.85;95978.13;6183119;23;20174;-83
2023/04/18 17:00:30;;;;;;;7.37;6.40;;;;;;;11.57;68.04;95973.03;6182873;23;20193;-83
2023/04/18 17:09:45;;;;;;;6.87;6.17;;;;;;;11.58;67.62;95985.94;6184608;23;20183;-84
2023/04/18 17:12:34;;;;;;;7.97;7.17;;;;;;;11.46;67.90;95981.84;6148340;23;20165;-84
2023/04/18 17:15:33;;;;;;;7.13;6.43;;;;;;;11.50;68.21;95983.22;6182716;23;20158;-84
2023/04/18 17:18:11;;;;;;;7.53;6.83;;;;;;;11.70;67.31;95983.94;6151800;23;20193;-84
2023/04/18 17:21:16;;;;;;;;;;;;;;;;;;;;;
2023/04/18 17:23:55;;;;;;;7.57;6.80;;;;;;;11.33;68.46;95976.16;6153248;23;20241;-83
2023/04/18 17:26:41;;;;;;;7.03;6.33;;;;;;;11.50;68.05;95985.00;6150729;23;20159;-83
2023/04/18 17:29:12;;;;;;;7.60;6.67;;;;;;;11.41;67.78;95984.06;6127544;23;20181;-84
2023/04/18 17:32:03;;;;;;;6.83;6.07;;;;;;;11.26;67.84;95985.47;6103399;23;20202;-84
2023/04/18 17:34:34;;;;;;;7.13;6.43;;;;;;;11.15;68.33;95994.25;6126487;23;20152;-84
2023/04/18 17:37:18;;;;;;;7.57;6.87;;;;;;;11.35;67.58;95989.84;6124823;23;20234;-86
2023/04/18 17:39:49;;;;;;;7.50;6.33;;;;;;;11.11;68.05;95985.09;6131067;23;20139;-86
2023/04/18 17:42:47;;;;;;;7.67;6.63;;;;;;;11.23;67.85;95990.97;6129684;23;20155;-85
2023/04/18 17:45:19;;;;;;;7.67;6.80;;;;;;;11.15;68.10;95988.25;6128995;23;20163;-85
2023/04/18 17:48:02;;;;;;;8.13;7.33;;;;;;;10.99;68.87;95994.00;6104436;23;20175;-85
2023/04/18 17:50:32;;;;;;;7.80;6.30;;;;;;;11.27;67.83;95989.72;6184862;23;20153;-84
2023/04/18 17:52:57;;;;;;;8.17;6.80;;;;;;;11.09;68.74;95994.81;6160612;23;20158;-83
2023/04/18 17:55:26;;;;;;;9.93;8.90;;;;;;;11.16;68.36;95992.47;6161382;23;20173;-85
2023/04/18 17:57:57;;;;;;;11.73;10.00;;;;;;;11.17;68.71;95999.31;6185274;23;20183;-85
2023/04/18 18:00:23;;;;;;;9.63;7.50;;;;;;;11.12;68.62;96001.50;6186153;23;20683;-86
2023/04/18 18:02:55;;;;;;;7.50;6.77;;;;;;;11.12;68.54;95993.72;6162048;23;20158;-85
2023/04/18 18:05:21;;;;;;;7.40;6.67;;;;;;;11.23;68.10;96004.78;6186669;23;20151;-84
2023/04/18 18:07:47;;;;;;;7.27;6.50;;;;;;;11.22;67.98;96010.94;6185629;23;20447;-84
2023/04/18 18:10:22;;;;;;;8.60;6.90;;;;;;;11.13;68.53;96003.16;6161206;23;20158;-85
2023/04/18 18:12:52;;;;;;;8.53;7.63;;;;;;;10.97;69.71;96009.75;6188354;23;20146;-85
2023/04/18 18:15:23;;;;;;;8.33;7.33;;;;;;;11.03;70.18;96011.78;6138189;23;20143;-83
2023/04/18 18:17:54;;;;;;;8.67;7.70;;;;;;;11.04;70.49;96007.41;6137634;23;20187;-84
2023/04/18 18:20:29;;;;;;;8.53;7.50;;;;;;;11.03;70.73;96016.97;6184927;23;20183;-83
2023/04/18 18:22:58;;;;;;;8.80;7.90;;;;;;;11.06;70.64;96015.91;6162156;23;20603;-84
2023/04/18 18:25:29;;;;;;;10.13;8.10;;;;;;;11.08;70.65;96021.78;6162171;23;20544;-83
2023/04/18 18:28:02;;;;;;;10.17;8.80;;;;;;;10.93;71.68;96016.16;6155180;23;20178;-83
2023/04/18 18:30:32;;;;;;;8.40;7.60;;;;;;;11.01;71.60;96023.28;6155950;23;20161;-85
2023/04/18 18:33:00;;;;;;;10.37;9.33;;;;;;;10.63;73.66;96024.94;6182589;23;20158;-85
2023/04/18 18:35:39;;;;;;;10.87;8.90;;;;;;;10.82;73.27;96024.13;6184214;23;20155;-84
2023/04/18 18:38:05;;;;;;;9.63;8.67;;;;;;;10.63;74.02;96032.72;6183387;23;20182;-82
2023/04/18 18:40:38;;;;;;;10.70;9.60;;;;;;;10.74;73.79;96034.38;6184326;23;20167;-87
2023/04/18 18:43:03;;;;;;;12.10;8.90;;;;;;;10.49;74.62;96036.53;6185101;23;20159;-85
2023/04/18 18:45:28;;;;;;;12.47;10.13;;;;;;;10.43;75.34;96033.69;6160791;23;20168;-84
2023/04/18 18:48:02;;;;;;;11.43;9.87;;;;;;;10.47;75.27;96038.44;6160615;23;20182;-83
2023/04/18 18:50:28;;;;;;;11.27;8.93;;;;;;;10.47;75.29;96040.22;6136234;23;20166;-83
2023/04/18 18:53:17;;;;;;;11.20;9.20;;;;;;;10.38;75.44;96044.44;6159355;23;20189;-83
2023/04/18 18:56:02;;;;;;;10.50;9.40;;;;;;;10.37;75.99;96045.41;6160658;23;20158;-82
2023/04/18 18:58:46;;;;;;;11.20;9.30;;;;;;;10.23;76.46;96045.78;6183241;23;20177;-83
2023/04/18 19:01:58;;;;;;;11.27;10.00;;;;;;;10.34;75.93;96045.69;6134581;23;20270;-84
2023/04/18 19:11:50;;;;;;;11.13;9.00;;;;;;;9.89;78.48;96056.47;5979675;24;20605;-85
2023/04/18 19:52:05;;;;;;;10.97;9.63;;;;;;;9.63;79.81;96076.00;6174737;23;20218;-84
2023/04/18 20:01:04;;;;;;;11.83;10.40;;;;;;;9.58;80.54;96080.72;6209075;23;20860;-85
2023/04/18 20:07:57;;;;;;;12.77;10.10;;;;;;;9.60;80.22;96077.06;6103612;23;20594;-83
2023/04/18 20:10:22;;;;;;;13.77;11.17;;;;;;;9.44;81.38;96084.47;6032633;23;20166;-82
2023/04/18 20:12:53;;;;;;;13.07;11.00;;;;;;;9.58;80.77;96080.72;6012653;23;20544;-84
2023/04/18 21:09:35;;;;;;;14.47;11.43;;;;;;;9.19;83.97;96093.47;6215165;23;20213;-83
2023/04/18 21:12:01;;;;;;;15.60;12.53;;;;;;;9.10;84.02;96096.81;6190812;23;20251;-83
2023/04/18 21:14:26;;;;;;;17.00;12.20;;;;;;;9.15;84.16;96092.06;6190694;23;20150;-83
2023/04/18 21:16:51;;;;;;;14.00;12.33;;;;;;;9.29;83.24;96091.75;6173392;23;20203;-83
2023/04/18 21:19:17;;;;;;;14.37;12.30;;;;;;;9.24;83.94;96095.66;6219868;23;20157;-83
2023/04/18 21:21:42;;;;;;;16.27;12.77;;;;;;;9.20;84.06;96091.69;6220088;23;20177;-83
2023/04/18 21:24:10;;;;;;;14.33;12.20;;;;;;;9.17;84.06;96092.75;6220435;23;20172;-82
2023/04/18 21:26:36;;;;;;;15.37;12.33;;;;;;;9.19;83.86;96097.78;6219698;23;20184;-82
2023/04/18 21:29:03;;;;;;;15.57;13.13;;;;;;;9.11;84.51;96106.22;6221311;23;20169;-83
2023/04/18 21:31:31;;;;;;;14.47;11.73;;;;;;;9.04;84.97;96102.47;6220843;23;20157;-83
2023/04/18 21:33:58;;;;;;;15.47;12.57;;;;;;;9.01;85.10;96103.56;6221697;23;20157;-83
2023/04/18 21:36:25;;;;;;;14.17;12.47;;;;;;;9.02;85.28;96102.59;6219868;23;20224;-83
2023/04/18 21:38:52;;;;;;;17.30;13.83;;;;;;;8.97;85.99;96098.72;6196680;23;20160;-82
2023/04/18 21:41:17;;;;;;;18.07;13.77;;;;;;;9.00;85.50;96103.66;6221813;23;20177;-82
2023/04/18 21:43:43;;;;;;;15.57;13.27;;;;;;;8.83;86.58;96102.41;6222129;23;20160;-83
2023/04/18 21:46:10;;;;;;;14.53;12.47;;;;;;;9.07;85.34;96103.03;6221592;23;20535;-83
2023/04/18 21:48:36;;;;;;;16.50;13.13;;;;;;;9.09;85.25;96103.72;6245768;22;20165;-83
2023/04/18 21:51:01;;;;;;;15.90;13.10;;;;;;;9.15;85.27;96096.41;6245169;22;20181;-84
2023/04/18 21:53:26;;;;;;;14.77;12.67;;;;;;;9.14;86.03;96094.78;6221351;23;20183;-84
2023/04/18 21:55:52;;;;;;;16.90;13.40;;;;;;;9.10;85.57;96091.63;6220911;23;20157;-85
2023/04/18 21:58:17;;;;;;;16.40;12.97;;;;;;;8.98;86.05;96102.97;6247262;22;20172;-85
2023/04/18 22:00:42;;;;;;;17.10;12.93;;;;;;;9.00;86.12;96099.28;6246661;22;20166;-84
2023/04/18 22:03:08;;;;;;;15.93;13.43;;;;;;;8.92;86.28;96096.53;6246562;22;20197;-84
2023/04/18 22:05:37;;;;;;;16.00;13.10;;;;;;;9.03;85.88;96088.69;6242996;22;20165;-83
2023/04/18 22:08:03;;;;;;;18.83;13.63;;;;;;;8.91;86.61;96094.03;6221169;23;20261;-82
2023/04/18 22:10:29;;;;;;;17.40;13.73;;;;;;;8.91;86.77;96097.44;6220701;23;20176;-82
2023/04/18 22:12:55;;;;;;;20.13;14.17;;;;;;;8.95;86.37;96095.44;6196079;23;20164;-83
2023/04/18 22:15:20;;;;;;;17.17;13.53;;;;;;;8.95;86.20;96100.63;6221056;23;20153;-82
2023/04/18 22:17:49;;;;;;;18.80;13.87;;;;;;;9.00;86.04;96093.28;6225199;23;20623;-83
2023/04/18 22:20:16;;;;;;;18.63;14.33;;;;;;;8.90;86.83;96097.59;6239632;23;20472;-83
2023/04/18 22:22:41;;;;;;;15.27;12.30;;;;;;;8.93;86.69;96092.16;6236838;23;20205;-83
2023/04/18 22:25:10;;;;;;;17.00;13.10;;;;;;;8.95;86.45;96096.28;6247656;23;20221;-83
2023/04/18 22:27:35;;;;;;;17.50;14.10;;;;;;;8.80;87.03;96087.97;6218949;23;20547;-82
2023/04/18 22:30:01;;;;;;;20.67;13.97;;;;;;;8.84;87.05;96092.91;6193522;23;20256;-83
2023/04/18 22:32:26;;;;;;;16.87;13.47;;;;;;;8.86;87.48;96091.84;6193071;23;20222;-83
2023/04/18 22:34:51;;;;;;;18.27;13.97;;;;;;;8.89;86.68;96094.16;6220820;23;20169;-84
2023/04/18 22:37:16;;;;;;;16.37;13.20;;;;;;;8.74;87.88;96093.63;6220304;23;20176;-83
2023/04/18 22:39:42;;;;;;;18.83;13.90;;;;;;;8.80;87.39;96087.16;6196298;23;20165;-83
2023/04/18 22:42:07;;;;;;;20.83;14.37;;;;;;;8.78;87.11;96092.44;6220674;23;20230;-82
2023/04/18 22:44:32;;;;;;;19.67;13.87;;;;;;;8.57;88.42;96086.41;6218680;23;20468;-82
2023/04/18 22:46:58;;;;;;;17.43;14.30;;;;;;;8.77;87.46;96090.81;6217717;23;20180;-82
2023/04/18 22:49:23;;;;;;;17.40;13.57;;;;;;;8.84;87.22;96093.72;6218824;23;20161;-82
2023/04/18 22:51:53;;;;;;;17.60;13.60;;;;;;;8.83;86.83;96093.84;6218892;23;20165;-82
2023/04/18 22:54:18;;;;;;;17.77;14.67;;;;;;;8.76;87.07;96090.94;6219815;23;20230;-82
2023/04/18 22:56:43;;;;;;;17.23;13.93;;;;;;;8.84;86.75;96100.69;6218291;23;20642;-82
2023/04/18 22:59:08;;;;;;;18.10;14.57;;;;;;;8.84;86.49;96098.09;6219195;23;20159;-81
2023/04/18 23:01:34;;;;;;;17.77;13.80;;;;;;;8.76;87.30;96093.53;6193253;23;20200;-81
2023/04/18 23:03:59;;;;;;;20.33;14.77;;;;;;;8.71;88.12;96095.66;6218674;23;20475;-81
2023/04/18 23:06:26;;;;;;;18.83;14.50;;;;;;;8.72;88.06;96094.69;6217779;23;20219;-82
2023/04/18 23:08:52;;;;;;;19.57;14.43;;;;;;;8.75;87.78;96100.47;6219171;23;20173;-82
2023/04/18 23:11:17;;;;;;;17.13;13.37;;;;;;;8.78;86.96;96099.41;6218392;23;20486;-82
2023/04/18 23:13:42;;;;;;;17.60;13.73;;;;;;;8.78;87.24;96091.63;6192552;23;20153;-83
2023/04/18 23:16:08;;;;;;;17.57;13.77;;;;;;;8.87;86.62;96092.66;6192743;23;20207;-84
2023/04/18 23:18:33;;;;;;;16.37;13.40;;;;;;;8.80;86.19;96098.31;6193872;23;20188;-83
2023/04/18 23:20:59;;;;;;;18.07;13.07;;;;;;;8.84;86.66;96104.09;6217906;23;20191;-83
2023/04/18 23:23:24;;;;;;;17.57;13.43;;;;;;;8.85;86.83;96099.72;6217867;23;20615;-83
2023/04/18 23:25:51;;;;;;;16.97;14.10;;;;;;;8.71;87.43;96098.25;6218384;23;20184;-81
2023/04/18 23:28:16;;;;;;;19.57;14.27;;;;;;;8.74;86.60;96088.44;6218103;23;20192;-83
2023/04/18 23:30:41;;;;;;;19.73;14.90;;;;;;;8.78;86.75;96089.84;6218259;23;20161;-82
2023/04/18 23:33:07;;;;;;;18.40;14.07;;;;;;;8.74;87.53;96092.81;6218690;23;20173;-83
2023/04/18 23:35:32;;;;;;;18.03;14.37;;;;;;;8.81;86.52;96091.38;6244654;23;20150;-82
2023/04/18 23:37:58;;;;;;;18.37;14.37;;;;;;;8.73;87.15;96097.16;6192427;23;20200;-83
2023/04/18 23:40:23;;;;;;;17.60;13.40;;;;;;;8.69;87.25;96094.97;6193875;23;20173;-84
2023/04/18 23:42:48;;;;;;;19.90;15.40;;;;;;;8.54;88.01;96094.41;6218950;23;20153;-82
2023/04/18 23:45:14;;;;;;;17.63;13.93;;;;;;;8.56;88.24;96096.84;6218460;23;20333;-83
2023/04/18 23:47:39;;;;;;;17.73;14.00;;;;;;;8.64;87.26;96089.31;6243590;23;20475;-83
2023/04/18 23:50:05;;;;;;;17.17;14.03;;;;;;;8.62;87.70;96094.63;6218588;23;20153;-82
2023/04/18 23:52:30;;;;;;;19.77;14.87;;;;;;;8.51;88.36;96092.06;6217745;23;20224;-82
2023/04/18 23:54:59;;;;;;;19.30;13.97;;;;;;;8.61;88.41;96087.78;6218665;23;20165;-82
2023/04/18 23:57:25;;;;;;;20.40;15.37;;;;;;;8.64;87.71;96087.53;6217820;23;20235;-83
2023/04/18 23:59:50;;;;;;;19.10;14.73;;;;;;;8.58;88.24;96090.63;6219382;23;20165;-82
